Мемориал "Звонница"

Карта отелей и гостиниц, располагающихся рядом с аэропортом Мемориал "Звонница" :



Мемориал "Звонница" Белгородская область 51° 0' 59.8212" N, 36° 40' 13.7388" E
Код аэродрома ИКАО: 
HC3C
Код аэродрома RU: 
ХЦ3Ц
Координаты: 
N51.01662° E036.67048°
Превышение над уровнем моря : 
251
Основная полоса: 
13/31
Курс магнитный: 
128,5/308,5
Длина основной ВПП: 
90
Ширина основной ВПП: 
28
Покрытие основной ВПП: 
Твёрдое (асфальт)
Тип: 
Вертодром
Освещение ВПП: 
Нет
Класс аэродрома: 
Статус: 
Действующий
Принадлежность: 
ГА
Сайт: 
E-mail аэродрома: 
Страна: 
Россия
Регион: 
Белгородская область
Город: 
Дополнительная информация: 
3 ПП для вертолетов в одну линию. Маркированы.

Найти трансфер

С помощью этой формы Вы можете найти трансфер из аэропорта Мемориал "Звонница" в город, аэропорт или вокзал:

Карта места

Javascript is required to view this map.

Погода в аэропортах:

Авиационная погода в Краснодаре

Регион: 
Погода METAR: 
URKK 042300Z 26002MPS 5000 BR NSC 14/13 Q1017 R23L/CLRD70 TEMPO 0200 FG OVC002 RMK QFE760
Время наблюдения: 
2020-06-04T23:00:00Z
Температура C: 
14.0
Точка росы: 
13.0
Направление ветра: 
260
Скорость ветра: 
4
Метеорологическая видимость: 
3.11
Явления погоды: 
BR
Условия полета: 
MVFR
Аэропорт подробнее: 

Авиационная погода в Чебоксарах

Регион: 
Погода METAR: 
UWKS 042300Z 21003MPS 4000 BR OVC007 15/14 Q1012 R06/010060 TEMPO 1000 BR OVC005 RMK QFE744
Время наблюдения: 
2020-06-04T23:00:00Z
Температура C: 
15.0
Точка росы: 
14.0
Направление ветра: 
210
Скорость ветра: 
6
Метеорологическая видимость: 
2.49
Явления погоды: 
BR
Условия полета: 
IFR
Аэропорт подробнее: 

Авиационная погода в Елизово

Регион: 
Погода METAR: 
UHPP 042300Z 18002MPS 150V210 9999 -SHRA BKN009 OVC016CB 09/09 Q1019 R16R/290250 NOSIG RMK MT OBSC QFE761/1015
Время наблюдения: 
2020-06-04T23:00:00Z
Температура C: 
9.0
Точка росы: 
9.0
Направление ветра: 
180
Скорость ветра: 
4
Метеорологическая видимость: 
6.21
Явления погоды: 
-SHRA
Условия полета: 
IFR
Аэропорт подробнее: 

Авиационная погода в Грозном

Регион: 
Погода METAR: 
URMG 042300Z 31004MPS 9999 -SHRA SCT///CB BKN/// 17/14 Q1014 R08/090070 NOSIG RMK QFE746/0995
Время наблюдения: 
2020-06-04T23:00:00Z
Температура C: 
17.0
Точка росы: 
14.0
Направление ветра: 
310
Скорость ветра: 
8
Метеорологическая видимость: 
6.21
Явления погоды: 
-SHRA
Аэропорт подробнее: